Hegina — 3ETX2 — position and weather

sailwx.info

Track history (hours):
 
Tides and Currents Weather Stations Pressure Air Temp Water Temp Dewpoint Dewpoint Depression Visibility Wind Speed Wind Dir Waves Ship Positions

Hegina

Last reported at 2015-Apr-08 10:31 UTC. Time now 2015-Apr-21 19:00 UTC.
Position S 34°11' W 058°12'.
Warning: this ship's position is 13 days out of date.

Length 138 m; draft 6.3 m.

Type: Cargo ship. MMSI: 372427000.

Date/timePositionNaut miles runAvg speedWind from/ knotsBaromVisibWave heightAir tempDewpointWater temp
2015-Apr-08 10:31S 34°11' W 058°12'1411.0
2015-Apr-08 09:16S 34°21' W 058°01'811.9
2015-Apr-08 08:33S 34°29' W 057°57'1212.1
2015-Apr-08 07:33S 34°41' W 057°58'9 9.0
2015-Apr-08 06:32S 34°44' W 057°47'1111.4
2015-Apr-08 05:33S 34°46' W 057°34'1312.7
2015-Apr-08 04:32S 34°52' W 057°20'1212.5
2015-Apr-08 03:33S 35°02' W 057°10'  
2015-Apr-04 23:25S 35°11' W 055°29'  
Track history (hours):
 
Tides and Currents Weather Stations Pressure Air Temp Water Temp Dewpoint Dewpoint Depression Visibility Wind Speed Wind Dir Waves Ship Positions

Hegina

Last reported at 2015-Apr-08 10:31 UTC. Time now 2015-Apr-21 19:00 UTC.
Position S 34°11' W 058°12'.
Warning: this ship's position is 13 days out of date.

Length 138 m; draft 6.3 m.

Type: Cargo ship. MMSI: 372427000.

Date/timePositionNaut miles runAvg speedWind from/ knotsBaromVisibWave heightAir tempDewpointWater temp
2015-Apr-08 10:31S 34°11' W 058°12'1411.0
2015-Apr-08 09:16S 34°21' W 058°01'811.9
2015-Apr-08 08:33S 34°29' W 057°57'1212.1
2015-Apr-08 07:33S 34°41' W 057°58'9 9.0
2015-Apr-08 06:32S 34°44' W 057°47'1111.4
2015-Apr-08 05:33S 34°46' W 057°34'1312.7
2015-Apr-08 04:32S 34°52' W 057°20'1212.5
2015-Apr-08 03:33S 35°02' W 057°10'  
2015-Apr-04 23:25S 35°11' W 055°29'  

Dump ship's entire track history